createdAt,value
2022-09-17T00:01:27.135Z,9.40
2022-09-17T00:03:57.375Z,9.30
2022-09-17T00:06:26.200Z,9.30
2022-09-17T00:08:54.911Z,9.30
2022-09-17T00:11:29.270Z,9.30
2022-09-17T00:13:59.778Z,9.30
2022-09-17T00:16:33.245Z,9.20
2022-09-17T00:19:01.834Z,9.30
2022-09-17T00:21:30.010Z,9.30
2022-09-17T00:24:00.584Z,9.20
2022-09-17T00:26:29.583Z,9.20
2022-09-17T00:28:58.161Z,9.10
2022-09-17T00:31:27.335Z,9.10
2022-09-17T00:33:54.840Z,9.10
2022-09-17T00:36:22.736Z,9.10
2022-09-17T00:38:51.883Z,9.10
2022-09-17T00:41:20.641Z,9.10
2022-09-17T00:43:52.535Z,9.10
2022-09-17T00:46:31.657Z,9.00
2022-09-17T00:49:07.656Z,9.00
2022-09-17T00:51:41.586Z,9.00
2022-09-17T00:54:11.871Z,9.00
2022-09-17T00:56:41.575Z,9.00
2022-09-17T00:59:09.648Z,9.00
2022-09-17T01:01:37.324Z,8.90
2022-09-17T01:04:04.857Z,8.90
2022-09-17T01:06:47.209Z,8.90
2022-09-17T01:09:35.010Z,8.90
2022-09-17T01:12:31.350Z,8.90
2022-09-17T01:15:22.314Z,8.90
2022-09-17T01:18:23.754Z,8.90
2022-09-17T01:21:10.076Z,9.00
2022-09-17T01:24:07.414Z,9.00
2022-09-17T01:26:43.935Z,9.10
2022-09-17T01:29:25.988Z,9.00
2022-09-17T01:32:08.990Z,9.00
2022-09-17T01:34:39.184Z,9.00
2022-09-17T01:37:19.589Z,9.10
2022-09-17T01:40:18.455Z,9.00
2022-09-17T01:42:54.836Z,9.00
2022-09-17T01:45:26.772Z,9.00
2022-09-17T01:48:08.800Z,9.10
2022-09-17T01:51:05.872Z,9.10
2022-09-17T01:54:12.745Z,9.10
2022-09-17T01:56:48.208Z,9.00
2022-09-17T01:59:31.613Z,9.00
2022-09-17T02:02:13.466Z,8.90
2022-09-17T02:04:55.831Z,8.90
2022-09-17T02:07:25.978Z,8.90
2022-09-17T02:10:06.843Z,8.80
2022-09-17T02:12:42.978Z,8.80
2022-09-17T02:15:18.197Z,8.70
2022-09-17T02:17:52.387Z,8.70
2022-09-17T02:20:24.809Z,8.80
2022-09-17T02:23:08.022Z,8.80
2022-09-17T02:25:49.580Z,8.80
2022-09-17T02:28:50.001Z,8.90
2022-09-17T02:31:18.355Z,8.80
2022-09-17T02:33:53.103Z,8.90
2022-09-17T02:36:21.689Z,8.80
2022-09-17T02:38:58.263Z,8.80
2022-09-17T02:41:51.368Z,8.90
2022-09-17T02:44:48.266Z,8.80
2022-09-17T02:47:34.669Z,8.90
2022-09-17T02:50:24.264Z,8.90
2022-09-17T02:53:09.962Z,8.80
2022-09-17T02:56:07.120Z,8.80
2022-09-17T02:58:45.827Z,8.80
2022-09-17T03:01:28.855Z,8.90
2022-09-17T03:04:00.111Z,8.90
2022-09-17T03:06:27.865Z,8.90
2022-09-17T03:08:57.259Z,8.90
2022-09-17T03:11:25.097Z,8.90
2022-09-17T03:13:52.707Z,8.90
2022-09-17T03:16:20.275Z,8.90
2022-09-17T03:18:47.806Z,8.90
2022-09-17T03:21:15.410Z,8.90
2022-09-17T03:23:42.851Z,9.00
2022-09-17T03:26:10.402Z,9.00
2022-09-17T03:28:37.927Z,9.00
2022-09-17T03:31:06.030Z,9.00
2022-09-17T03:33:33.766Z,9.10
2022-09-17T03:36:01.571Z,9.00
2022-09-17T03:38:29.108Z,9.00
2022-09-17T03:41:05.160Z,9.00
2022-09-17T03:43:32.646Z,9.00
2022-09-17T03:46:00.622Z,9.00
2022-09-17T03:48:29.662Z,9.00
2022-09-17T03:50:59.698Z,9.00
2022-09-17T03:53:27.222Z,9.00
2022-09-17T03:55:57.663Z,9.00
2022-09-17T03:58:25.143Z,9.00
2022-09-17T04:00:53.468Z,9.00
2022-09-17T04:03:21.606Z,9.00
2022-09-17T04:05:49.536Z,9.00
2022-09-17T04:08:17.396Z,9.00
2022-09-17T04:10:45.491Z,9.00
2022-09-17T04:13:14.742Z,8.90
2022-09-17T04:15:42.923Z,8.90
2022-09-17T04:18:10.715Z,9.00
2022-09-17T04:20:38.597Z,9.00
2022-09-17T04:23:07.411Z,8.90
2022-09-17T04:25:34.925Z,8.90
2022-09-17T04:28:02.682Z,8.90
2022-09-17T04:30:30.169Z,8.90
2022-09-17T04:32:57.696Z,9.00
2022-09-17T04:35:25.226Z,9.00
2022-09-17T04:37:57.015Z,9.00
2022-09-17T04:40:25.641Z,9.00
2022-09-17T04:42:54.494Z,9.00
2022-09-17T04:45:22.903Z,9.00
2022-09-17T04:47:53.276Z,8.90
2022-09-17T04:50:21.225Z,8.90
2022-09-17T04:52:48.927Z,8.90
2022-09-17T04:55:16.729Z,9.00
2022-09-17T04:57:48.614Z,9.00
2022-09-17T05:00:17.748Z,9.00
2022-09-17T05:02:47.524Z,9.10
2022-09-17T05:05:16.716Z,9.10
2022-09-17T05:07:44.399Z,9.10
2022-09-17T05:10:13.044Z,9.10
2022-09-17T05:12:40.488Z,9.20
2022-09-17T05:15:08.385Z,9.20
2022-09-17T05:17:35.851Z,9.20
2022-09-17T05:20:03.655Z,9.20
2022-09-17T05:22:31.107Z,9.30
2022-09-17T05:24:58.591Z,9.30
2022-09-17T05:27:26.030Z,9.30
2022-09-17T05:29:53.523Z,9.30
2022-09-17T05:32:20.938Z,9.30
2022-09-17T05:34:48.494Z,9.30
2022-09-17T05:37:16.007Z,9.30
2022-09-17T05:39:43.508Z,9.30
2022-09-17T05:42:10.946Z,9.30
2022-09-17T05:44:38.449Z,9.20
2022-09-17T05:47:06.011Z,9.20
2022-09-17T05:49:33.496Z,9.30
2022-09-17T05:52:01.026Z,9.30
2022-09-17T05:54:28.517Z,9.30
2022-09-17T05:56:56.147Z,9.40
2022-09-17T05:59:23.746Z,9.40
2022-09-17T06:01:51.227Z,9.50
2022-09-17T06:04:19.017Z,9.50
2022-09-17T06:06:46.505Z,9.50
2022-09-17T06:09:14.123Z,9.50
2022-09-17T06:11:42.096Z,9.50
2022-09-17T06:14:10.230Z,9.60
2022-09-17T06:16:38.359Z,9.60
2022-09-17T06:19:05.813Z,9.60
2022-09-17T06:21:33.316Z,9.70
2022-09-17T06:24:01.447Z,9.70
2022-09-17T06:26:28.885Z,9.80
2022-09-17T06:28:56.444Z,9.80
2022-09-17T06:31:23.924Z,9.80
2022-09-17T06:33:51.437Z,9.80
2022-09-17T06:36:18.932Z,9.80
2022-09-17T06:38:46.482Z,9.80
2022-09-17T06:41:15.037Z,10.00
2022-09-17T06:43:42.900Z,10.00
2022-09-17T06:46:11.235Z,10.10
2022-09-17T06:48:39.114Z,10.20
2022-09-17T06:51:08.593Z,10.20
2022-09-17T06:53:37.898Z,10.30
2022-09-17T06:56:07.498Z,10.30
2022-09-17T06:58:43.824Z,10.40
2022-09-17T07:01:12.328Z,10.50
2022-09-17T07:03:43.008Z,10.50
2022-09-17T07:06:11.139Z,10.50
2022-09-17T07:08:39.506Z,10.50
2022-09-17T07:11:08.132Z,10.50
2022-09-17T07:13:35.732Z,10.50
2022-09-17T07:16:05.367Z,10.60
2022-09-17T07:18:33.258Z,10.60
2022-09-17T07:21:04.640Z,10.60
2022-09-17T07:23:34.572Z,10.60
2022-09-17T07:26:07.868Z,10.70
2022-09-17T07:28:35.797Z,10.70
2022-09-17T07:31:05.738Z,10.70
2022-09-17T07:33:35.410Z,10.70
2022-09-17T07:36:06.613Z,10.70
2022-09-17T07:38:35.289Z,10.70
2022-09-17T07:41:13.051Z,10.60
2022-09-17T07:43:41.571Z,10.60
2022-09-17T07:46:15.100Z,10.60
2022-09-17T07:48:42.758Z,10.60
2022-09-17T07:51:16.392Z,10.60
2022-09-17T07:53:43.943Z,10.70
2022-09-17T07:56:12.134Z,10.80
2022-09-17T07:58:39.836Z,10.90
2022-09-17T08:01:09.792Z,11.10
2022-09-17T08:03:39.553Z,11.10
2022-09-17T08:06:08.499Z,11.30
2022-09-17T08:08:36.813Z,11.30
2022-09-17T08:11:10.864Z,11.30
2022-09-17T08:13:38.658Z,11.30
2022-09-17T08:16:13.252Z,11.30
2022-09-17T08:18:47.510Z,11.40
2022-09-17T08:21:18.147Z,11.50
2022-09-17T08:23:46.019Z,11.60
2022-09-17T08:26:19.045Z,11.60
2022-09-17T08:28:57.239Z,11.70
2022-09-17T08:31:30.735Z,11.70
2022-09-17T08:33:58.348Z,11.80
2022-09-17T08:36:26.605Z,11.60
2022-09-17T08:38:55.703Z,11.70
2022-09-17T08:41:52.466Z,11.80
2022-09-17T08:44:32.640Z,11.70
2022-09-17T08:47:06.946Z,11.80
2022-09-17T08:49:47.468Z,11.80
2022-09-17T08:52:47.132Z,11.90
2022-09-17T08:55:35.015Z,11.70
2022-09-17T08:58:35.269Z,11.60
2022-09-17T09:01:23.335Z,11.50
2022-09-17T09:04:12.002Z,11.70
2022-09-17T09:06:59.609Z,11.70
2022-09-17T09:09:32.088Z,11.70
2022-09-17T09:12:13.704Z,11.70
2022-09-17T09:14:59.898Z,11.80
2022-09-17T09:17:34.786Z,11.80
2022-09-17T09:20:02.886Z,11.80
2022-09-17T09:23:00.040Z,11.90
2022-09-17T09:25:39.849Z,11.90
2022-09-17T09:28:44.372Z,11.80
2022-09-17T09:31:21.833Z,12.00
2022-09-17T09:33:51.074Z,12.10
2022-09-17T09:36:22.150Z,12.20
2022-09-17T09:39:05.789Z,12.30
2022-09-17T09:41:58.952Z,12.30
2022-09-17T09:44:27.686Z,12.50
2022-09-17T09:47:16.296Z,12.60
2022-09-17T09:49:57.959Z,12.60
2022-09-17T09:52:49.383Z,12.50
2022-09-17T09:55:31.550Z,12.50
2022-09-17T09:58:17.102Z,12.50
2022-09-17T10:00:44.832Z,12.60
2022-09-17T10:03:23.209Z,12.60
2022-09-17T10:06:02.958Z,12.50
2022-09-17T10:08:33.689Z,12.60
2022-09-17T10:11:02.858Z,12.60
2022-09-17T10:13:40.590Z,12.50
2022-09-17T10:16:29.246Z,12.50
2022-09-17T10:19:05.427Z,12.10
2022-09-17T10:21:39.623Z,12.00
2022-09-17T10:24:32.182Z,11.90
2022-09-17T10:27:06.924Z,11.90
2022-09-17T10:29:35.431Z,12.10
2022-09-17T10:32:07.043Z,12.30
2022-09-17T10:34:34.995Z,12.40
2022-09-17T10:37:02.639Z,12.40
2022-09-17T10:39:30.641Z,12.50
2022-09-17T10:42:14.683Z,12.50
2022-09-17T10:44:56.490Z,12.60
2022-09-17T10:47:34.373Z,12.50
2022-09-17T10:50:16.779Z,12.40
2022-09-17T10:52:52.959Z,12.30
2022-09-17T10:55:46.714Z,12.40
2022-09-17T10:59:01.847Z,12.30
2022-09-17T11:01:35.718Z,12.10
2022-09-17T11:04:25.024Z,12.10
2022-09-17T11:07:01.758Z,12.20
2022-09-17T11:09:52.864Z,12.20
2022-09-17T11:12:37.523Z,12.10
2022-09-17T11:15:26.989Z,12.10
2022-09-17T11:18:15.685Z,12.20
2022-09-17T11:20:58.155Z,12.40
2022-09-17T11:23:40.945Z,12.50
2022-09-17T11:26:30.344Z,12.50
2022-09-17T11:29:21.139Z,12.70
2022-09-17T11:32:00.896Z,12.70
2022-09-17T11:34:28.489Z,12.90
2022-09-17T11:37:14.801Z,12.60
2022-09-17T11:40:06.321Z,12.50
2022-09-17T11:42:45.508Z,12.60
2022-09-17T11:45:23.361Z,12.20
2022-09-17T11:48:22.266Z,12.20
2022-09-17T11:50:58.471Z,12.20
2022-09-17T11:54:02.836Z,12.10
2022-09-17T11:56:44.424Z,12.20
2022-09-17T11:59:15.529Z,12.30
2022-09-17T12:02:04.441Z,12.40
2022-09-17T12:04:53.248Z,12.50
2022-09-17T12:07:58.737Z,12.60
2022-09-17T12:10:32.752Z,12.50
2022-09-17T12:13:18.362Z,12.40
2022-09-17T12:15:53.362Z,12.50
2022-09-17T12:18:32.179Z,12.40
2022-09-17T12:21:05.171Z,12.40
2022-09-17T12:23:44.373Z,12.40
2022-09-17T12:26:29.424Z,12.50
2022-09-17T12:29:15.140Z,12.60
2022-09-17T12:31:57.117Z,12.60
2022-09-17T12:34:46.608Z,12.80
2022-09-17T12:37:42.481Z,12.80
2022-09-17T12:40:36.136Z,12.80
2022-09-17T12:43:15.708Z,12.70
2022-09-17T12:46:01.110Z,12.30
2022-09-17T12:48:34.372Z,12.10
2022-09-17T12:51:19.643Z,11.90
2022-09-17T12:54:22.377Z,12.00
2022-09-17T12:57:02.518Z,12.00
2022-09-17T12:59:34.919Z,11.90
2022-09-17T13:02:20.092Z,11.90
2022-09-17T13:05:24.640Z,12.00
2022-09-17T13:08:16.428Z,12.10
2022-09-17T13:10:58.891Z,12.20
2022-09-17T13:13:56.398Z,12.30
2022-09-17T13:16:29.505Z,12.20
2022-09-17T13:19:44.996Z,12.30
2022-09-17T13:22:17.491Z,12.40
2022-09-17T13:24:49.506Z,12.40
2022-09-17T13:27:38.400Z,12.50
2022-09-17T13:30:07.869Z,12.60
2022-09-17T13:32:35.725Z,12.60
2022-09-17T13:35:11.851Z,12.50
2022-09-17T13:37:42.789Z,12.70
2022-09-17T13:40:48.875Z,12.90
2022-09-17T13:43:20.148Z,13.20
2022-09-17T13:45:59.678Z,13.20
2022-09-17T13:48:32.646Z,13.10
2022-09-17T13:51:32.175Z,13.00
2022-09-17T13:54:02.753Z,12.80
2022-09-17T13:56:36.755Z,12.70
2022-09-17T13:59:09.557Z,12.70
2022-09-17T14:02:04.902Z,12.80
2022-09-17T14:04:41.569Z,12.90
2022-09-17T14:07:24.400Z,12.80
2022-09-17T14:10:01.402Z,12.90
2022-09-17T14:12:48.735Z,13.00
2022-09-17T14:15:40.634Z,13.20
2022-09-17T14:18:26.905Z,13.20
2022-09-17T14:21:12.678Z,13.30
2022-09-17T14:23:52.431Z,13.40
2022-09-17T14:26:35.982Z,13.40
2022-09-17T14:29:43.721Z,13.40
2022-09-17T14:32:48.495Z,13.60
2022-09-17T14:35:38.269Z,13.70
2022-09-17T14:38:24.876Z,13.70
2022-09-17T14:41:01.515Z,13.70
2022-09-17T14:43:52.216Z,13.80
2022-09-17T14:46:31.654Z,13.60
2022-09-17T14:49:20.759Z,13.50
2022-09-17T14:51:48.831Z,13.40
2022-09-17T14:54:26.184Z,13.30
2022-09-17T14:56:55.491Z,13.20
2022-09-17T14:59:45.967Z,13.20
2022-09-17T15:02:35.960Z,13.30
2022-09-17T15:05:27.015Z,13.20
2022-09-17T15:08:15.187Z,13.20
2022-09-17T15:11:04.110Z,13.20
2022-09-17T15:13:50.557Z,13.20
2022-09-17T15:16:30.661Z,13.20
2022-09-17T15:19:00.342Z,13.20
2022-09-17T15:21:43.066Z,13.00
2022-09-17T15:24:55.598Z,12.90
2022-09-17T15:27:31.741Z,13.00
2022-09-17T15:30:04.128Z,12.90
2022-09-17T15:32:33.452Z,12.80
2022-09-17T15:35:18.114Z,12.70
2022-09-17T15:38:11.521Z,12.70
2022-09-17T15:40:41.303Z,12.60
2022-09-17T15:43:29.439Z,12.80
2022-09-17T15:45:58.465Z,12.90
2022-09-17T15:48:39.567Z,13.00
2022-09-17T15:51:22.877Z,13.00
2022-09-17T15:54:28.000Z,12.90
2022-09-17T15:57:00.115Z,12.70
2022-09-17T15:59:30.658Z,12.70
2022-09-17T16:02:01.777Z,12.70
2022-09-17T16:04:33.976Z,12.70
2022-09-17T16:07:07.923Z,12.70
2022-09-17T16:09:50.113Z,12.80
2022-09-17T16:12:26.678Z,12.60
2022-09-17T16:14:57.009Z,12.60
2022-09-17T16:17:35.833Z,12.60
2022-09-17T16:20:14.359Z,12.50
2022-09-17T16:22:42.517Z,12.50
2022-09-17T16:25:11.299Z,12.40
2022-09-17T16:28:03.307Z,12.50
2022-09-17T16:30:32.117Z,12.50
2022-09-17T16:33:00.269Z,12.40
2022-09-17T16:35:27.945Z,12.30
2022-09-17T16:37:56.446Z,12.10
2022-09-17T16:40:27.942Z,12.00
2022-09-17T16:42:55.843Z,12.00
2022-09-17T16:45:28.093Z,12.00
2022-09-17T16:47:56.931Z,11.90
2022-09-17T16:50:24.755Z,11.90
2022-09-17T16:52:53.595Z,11.90
2022-09-17T16:55:21.931Z,11.90
2022-09-17T16:57:49.789Z,11.90
2022-09-17T17:00:20.935Z,12.00
2022-09-17T17:02:54.314Z,12.00
2022-09-17T17:05:22.251Z,12.00
2022-09-17T17:07:50.367Z,11.90
2022-09-17T17:10:18.577Z,11.90
2022-09-17T17:12:46.023Z,11.80
2022-09-17T17:15:13.907Z,11.80
2022-09-17T17:17:41.375Z,11.80
2022-09-17T17:20:10.256Z,11.80
2022-09-17T17:22:37.879Z,11.70
2022-09-17T17:25:06.466Z,11.70
2022-09-17T17:27:34.844Z,11.60
2022-09-17T17:30:06.501Z,11.50
2022-09-17T17:32:35.009Z,11.60
2022-09-17T17:35:03.511Z,11.60
2022-09-17T17:37:31.117Z,11.60
2022-09-17T17:39:58.664Z,11.60
2022-09-17T17:42:26.337Z,11.60
2022-09-17T17:44:55.641Z,11.60
2022-09-17T17:47:23.349Z,11.50
2022-09-17T17:49:50.814Z,11.40
2022-09-17T17:52:18.444Z,11.50
2022-09-17T17:54:46.014Z,11.50
2022-09-17T17:57:13.575Z,11.50
2022-09-17T17:59:41.252Z,11.50
2022-09-17T18:02:11.155Z,11.60
2022-09-17T18:04:39.588Z,11.50
2022-09-17T18:07:07.869Z,11.60
2022-09-17T18:09:35.575Z,11.60
2022-09-17T18:12:03.364Z,11.60
2022-09-17T18:14:31.689Z,11.50
2022-09-17T18:16:59.884Z,11.60
2022-09-17T18:19:27.473Z,11.60
2022-09-17T18:21:55.141Z,11.60
2022-09-17T18:24:22.809Z,11.60
2022-09-17T18:26:50.304Z,11.70
2022-09-17T18:29:17.885Z,11.60
2022-09-17T18:31:45.889Z,11.60
2022-09-17T18:34:15.810Z,11.60
2022-09-17T18:36:50.848Z,11.60
2022-09-17T18:39:57.073Z,11.60
2022-09-17T18:42:09.654Z,11.50
2022-09-17T18:44:37.243Z,11.50
2022-09-17T18:47:04.795Z,11.50
2022-09-17T18:49:32.551Z,11.60
2022-09-17T18:52:00.143Z,11.50
2022-09-17T18:54:27.788Z,11.60
2022-09-17T18:56:55.343Z,11.60
2022-09-17T18:59:22.996Z,11.70
2022-09-17T19:01:50.557Z,11.60
2022-09-17T19:04:18.327Z,11.60
2022-09-17T19:06:45.795Z,11.60
2022-09-17T19:09:13.420Z,11.60
2022-09-17T19:11:40.955Z,11.60
2022-09-17T19:14:10.485Z,11.40
2022-09-17T19:16:38.068Z,11.40
2022-09-17T19:19:05.650Z,11.40
2022-09-17T19:21:33.111Z,11.50
2022-09-17T19:24:02.765Z,11.50
2022-09-17T19:26:30.626Z,11.50
2022-09-17T19:29:00.360Z,11.50
2022-09-17T19:31:28.407Z,11.50
2022-09-17T19:33:56.952Z,11.40
2022-09-17T19:36:24.702Z,11.40
2022-09-17T19:38:52.427Z,11.30
2022-09-17T19:41:23.293Z,11.20
2022-09-17T19:43:54.887Z,11.20
2022-09-17T19:46:25.969Z,11.10
2022-09-17T19:48:56.077Z,11.10
2022-09-17T19:51:25.816Z,11.10
2022-09-17T19:53:53.789Z,11.10
2022-09-17T19:56:23.377Z,11.10
2022-09-17T19:58:51.693Z,11.00
2022-09-17T20:01:20.012Z,11.10
2022-09-17T20:03:50.807Z,11.00
2022-09-17T20:06:20.884Z,10.90
2022-09-17T20:08:50.888Z,10.90
2022-09-17T20:11:19.780Z,10.90
2022-09-17T20:13:47.644Z,10.80
2022-09-17T20:16:21.207Z,10.80
2022-09-17T20:18:49.960Z,10.80
2022-09-17T20:21:23.221Z,10.90
2022-09-17T20:23:50.924Z,10.90
2022-09-17T20:26:18.547Z,10.80
2022-09-17T20:28:47.037Z,10.90
2022-09-17T20:31:17.229Z,11.00
2022-09-17T20:33:46.140Z,11.00
2022-09-17T20:36:18.977Z,11.00
2022-09-17T20:41:36.082Z,11.00
2022-09-17T20:44:03.714Z,10.90
2022-09-17T20:46:31.309Z,10.90
2022-09-17T20:49:00.075Z,10.90
2022-09-17T20:51:29.870Z,11.00
2022-09-17T20:53:58.173Z,10.90
2022-09-17T20:56:28.493Z,10.80
2022-09-17T20:59:03.958Z,10.80
2022-09-17T21:01:35.844Z,10.80
2022-09-17T21:04:07.881Z,10.80
2022-09-17T21:06:38.169Z,10.70
2022-09-17T21:09:06.406Z,10.80
2022-09-17T21:11:34.987Z,10.70
2022-09-17T21:14:02.836Z,10.70
2022-09-17T21:16:30.945Z,10.70
2022-09-17T21:19:04.514Z,10.60
2022-09-17T21:21:34.543Z,10.60
2022-09-17T21:24:04.602Z,10.70
2022-09-17T21:26:33.801Z,10.70
2022-09-17T21:29:01.473Z,10.60
2022-09-17T21:31:32.974Z,10.60
2022-09-17T21:34:02.912Z,10.60
2022-09-17T21:36:33.523Z,10.60
2022-09-17T21:39:04.089Z,10.60
2022-09-17T21:41:31.755Z,10.70
2022-09-17T21:43:59.563Z,10.60
2022-09-17T21:46:34.224Z,10.70
2022-09-17T21:49:03.240Z,10.70
2022-09-17T21:51:38.728Z,10.70
2022-09-17T21:54:12.085Z,10.70
2022-09-17T21:56:39.943Z,10.70
2022-09-17T21:59:11.149Z,10.70
2022-09-17T22:01:43.651Z,10.70
2022-09-17T22:04:16.726Z,10.60
2022-09-17T22:06:45.750Z,10.60
2022-09-17T22:09:16.382Z,10.60
2022-09-17T22:11:44.524Z,10.50
2022-09-17T22:14:23.830Z,10.50
2022-09-17T22:16:55.232Z,10.50
2022-09-17T22:19:24.066Z,10.50
2022-09-17T22:21:54.160Z,10.40
2022-09-17T22:24:23.080Z,10.40
2022-09-17T22:26:57.835Z,10.30
2022-09-17T22:29:28.639Z,10.30
2022-09-17T22:31:57.397Z,10.30
2022-09-17T22:34:26.488Z,10.20
2022-09-17T22:36:53.994Z,10.30
2022-09-17T22:39:22.277Z,10.20
2022-09-17T22:41:50.657Z,10.20
2022-09-17T22:44:19.936Z,10.20
2022-09-17T22:46:51.004Z,10.20
2022-09-17T22:49:19.424Z,10.20
2022-09-17T22:51:47.441Z,10.20
2022-09-17T22:54:19.140Z,10.10
2022-09-17T22:56:48.446Z,10.10
2022-09-17T22:59:19.692Z,10.10
2022-09-17T23:01:47.497Z,10.10
2022-09-17T23:04:15.257Z,10.20
2022-09-17T23:06:42.830Z,10.30
2022-09-17T23:09:14.302Z,10.20
2022-09-17T23:11:42.927Z,10.20
2022-09-17T23:14:12.930Z,10.20
2022-09-17T23:16:43.462Z,10.10
2022-09-17T23:19:11.860Z,10.20
2022-09-17T23:21:40.045Z,10.20
2022-09-17T23:24:08.828Z,10.20
2022-09-17T23:26:36.481Z,10.10
2022-09-17T23:29:05.696Z,10.20
2022-09-17T23:31:37.409Z,10.20
2022-09-17T23:34:05.962Z,10.10
2022-09-17T23:36:38.783Z,10.10
2022-09-17T23:39:10.268Z,10.10
2022-09-17T23:41:43.613Z,10.00
2022-09-17T23:44:15.831Z,9.90
2022-09-17T23:46:45.300Z,10.00
2022-09-17T23:49:14.817Z,9.90
2022-09-17T23:51:42.483Z,9.90
2022-09-17T23:54:10.398Z,9.90
2022-09-17T23:56:38.010Z,9.90
2022-09-17T23:59:07.386Z,9.90
